sensor_id;sensor_type;location;lat;lon;timestamp;temperature;humidity
12436;DHT22;6282;51.440;6.938;2023-04-03T00:01:24;2.40;99.90
12436;DHT22;6282;51.440;6.938;2023-04-03T00:03:51;2.40;99.90
12436;DHT22;6282;51.440;6.938;2023-04-03T00:06:18;2.40;99.90
12436;DHT22;6282;51.440;6.938;2023-04-03T00:08:45;2.70;99.90
12436;DHT22;6282;51.440;6.938;2023-04-03T00:11:13;2.20;99.90
12436;DHT22;6282;51.440;6.938;2023-04-03T00:13:40;2.60;99.90
12436;DHT22;6282;51.440;6.938;2023-04-03T00:16:08;2.50;99.90
12436;DHT22;6282;51.440;6.938;2023-04-03T00:18:35;2.20;99.90
12436;DHT22;6282;51.440;6.938;2023-04-03T00:21:03;2.00;99.90
12436;DHT22;6282;51.440;6.938;2023-04-03T00:23:30;2.10;99.90
12436;DHT22;6282;51.440;6.938;2023-04-03T00:25:57;2.10;99.90
12436;DHT22;6282;51.440;6.938;2023-04-03T00:28:25;2.30;99.90
12436;DHT22;6282;51.440;6.938;2023-04-03T00:30:52;2.30;99.90
12436;DHT22;6282;51.440;6.938;2023-04-03T00:33:19;2.20;99.90
12436;DHT22;6282;51.440;6.938;2023-04-03T00:35:47;2.30;99.90
12436;DHT22;6282;51.440;6.938;2023-04-03T00:38:15;2.40;99.90
12436;DHT22;6282;51.440;6.938;2023-04-03T00:40:44;2.20;99.90
12436;DHT22;6282;51.440;6.938;2023-04-03T00:43:13;2.10;99.90
12436;DHT22;6282;51.440;6.938;2023-04-03T00:45:43;2.30;99.90
12436;DHT22;6282;51.440;6.938;2023-04-03T00:48:14;2.20;99.90
12436;DHT22;6282;51.440;6.938;2023-04-03T00:50:43;2.20;99.90
12436;DHT22;6282;51.440;6.938;2023-04-03T00:53:13;2.10;99.90
12436;DHT22;6282;51.440;6.938;2023-04-03T00:55:41;2.10;99.90
12436;DHT22;6282;51.440;6.938;2023-04-03T00:58:09;1.80;99.90
12436;DHT22;6282;51.440;6.938;2023-04-03T01:00:38;1.80;99.90
12436;DHT22;6282;51.440;6.938;2023-04-03T01:03:08;2.00;99.90
12436;DHT22;6282;51.440;6.938;2023-04-03T01:05:35;2.10;99.90
12436;DHT22;6282;51.440;6.938;2023-04-03T01:08:02;2.00;99.90
12436;DHT22;6282;51.440;6.938;2023-04-03T01:10:29;1.80;99.90
12436;DHT22;6282;51.440;6.938;2023-04-03T01:12:56;1.90;99.90
12436;DHT22;6282;51.440;6.938;2023-04-03T01:15:25;1.90;99.90
12436;DHT22;6282;51.440;6.938;2023-04-03T01:17:54;2.20;99.90
12436;DHT22;6282;51.440;6.938;2023-04-03T01:23:53;2.00;99.90
12436;DHT22;6282;51.440;6.938;2023-04-03T01:26:23;1.90;99.90
12436;DHT22;6282;51.440;6.938;2023-04-03T01:28:53;2.00;99.90
12436;DHT22;6282;51.440;6.938;2023-04-03T01:31:24;1.90;99.90
12436;DHT22;6282;51.440;6.938;2023-04-03T01:33:53;1.80;99.90
12436;DHT22;6282;51.440;6.938;2023-04-03T01:36:22;1.80;99.90
12436;DHT22;6282;51.440;6.938;2023-04-03T01:38:49;2.10;99.90
12436;DHT22;6282;51.440;6.938;2023-04-03T01:41:16;2.00;99.90
12436;DHT22;6282;51.440;6.938;2023-04-03T01:43:43;2.30;99.90
12436;DHT22;6282;51.440;6.938;2023-04-03T01:46:10;2.20;99.90
12436;DHT22;6282;51.440;6.938;2023-04-03T01:48:37;2.00;99.90
12436;DHT22;6282;51.440;6.938;2023-04-03T01:51:06;2.00;99.90
12436;DHT22;6282;51.440;6.938;2023-04-03T01:53:32;2.00;99.90
12436;DHT22;6282;51.440;6.938;2023-04-03T01:55:59;2.00;99.90
12436;DHT22;6282;51.440;6.938;2023-04-03T01:58:26;2.10;99.90
12436;DHT22;6282;51.440;6.938;2023-04-03T02:00:53;2.20;99.90
12436;DHT22;6282;51.440;6.938;2023-04-03T02:03:20;1.90;99.90
12436;DHT22;6282;51.440;6.938;2023-04-03T02:05:47;2.10;99.90
12436;DHT22;6282;51.440;6.938;2023-04-03T02:08:15;2.10;99.90
12436;DHT22;6282;51.440;6.938;2023-04-03T02:10:44;2.10;99.90
12436;DHT22;6282;51.440;6.938;2023-04-03T02:13:11;1.90;99.90
12436;DHT22;6282;51.440;6.938;2023-04-03T02:15:38;1.90;99.90
12436;DHT22;6282;51.440;6.938;2023-04-03T02:18:05;1.90;99.90
12436;DHT22;6282;51.440;6.938;2023-04-03T02:20:32;1.80;99.90
12436;DHT22;6282;51.440;6.938;2023-04-03T02:22:59;2.10;99.90
12436;DHT22;6282;51.440;6.938;2023-04-03T02:27:57;2.10;99.90
12436;DHT22;6282;51.440;6.938;2023-04-03T02:30:24;2.00;99.90
12436;DHT22;6282;51.440;6.938;2023-04-03T02:32:51;2.00;99.90
12436;DHT22;6282;51.440;6.938;2023-04-03T02:35:19;2.00;99.90
12436;DHT22;6282;51.440;6.938;2023-04-03T02:37:46;2.10;99.90
12436;DHT22;6282;51.440;6.938;2023-04-03T02:40:12;2.00;99.90
12436;DHT22;6282;51.440;6.938;2023-04-03T02:42:40;2.00;99.90
12436;DHT22;6282;51.440;6.938;2023-04-03T02:45:09;2.20;99.90
12436;DHT22;6282;51.440;6.938;2023-04-03T02:47:36;2.40;99.90
12436;DHT22;6282;51.440;6.938;2023-04-03T02:50:04;2.30;99.90
12436;DHT22;6282;51.440;6.938;2023-04-03T02:52:31;2.20;99.90
12436;DHT22;6282;51.440;6.938;2023-04-03T02:54:58;2.10;99.90
12436;DHT22;6282;51.440;6.938;2023-04-03T02:57:25;2.00;99.90
12436;DHT22;6282;51.440;6.938;2023-04-03T02:59:52;2.10;99.90
12436;DHT22;6282;51.440;6.938;2023-04-03T03:02:20;2.30;99.90
12436;DHT22;6282;51.440;6.938;2023-04-03T03:04:46;2.10;99.90
12436;DHT22;6282;51.440;6.938;2023-04-03T03:07:13;2.20;99.90
12436;DHT22;6282;51.440;6.938;2023-04-03T03:09:40;2.30;99.90
12436;DHT22;6282;51.440;6.938;2023-04-03T03:12:07;2.20;99.90
12436;DHT22;6282;51.440;6.938;2023-04-03T03:14:34;2.20;99.90
12436;DHT22;6282;51.440;6.938;2023-04-03T03:17:01;2.50;99.90
12436;DHT22;6282;51.440;6.938;2023-04-03T03:19:29;2.30;99.90
12436;DHT22;6282;51.440;6.938;2023-04-03T03:21:56;2.30;99.90
12436;DHT22;6282;51.440;6.938;2023-04-03T03:24:23;2.20;99.90
12436;DHT22;6282;51.440;6.938;2023-04-03T03:26:50;2.10;99.90
12436;DHT22;6282;51.440;6.938;2023-04-03T03:29:17;2.20;99.90
12436;DHT22;6282;51.440;6.938;2023-04-03T03:31:43;2.00;99.90
12436;DHT22;6282;51.440;6.938;2023-04-03T03:34:10;2.20;99.90
12436;DHT22;6282;51.440;6.938;2023-04-03T03:36:39;2.20;99.90
12436;DHT22;6282;51.440;6.938;2023-04-03T03:39:06;2.30;99.90
12436;DHT22;6282;51.440;6.938;2023-04-03T03:41:33;2.20;99.90
12436;DHT22;6282;51.440;6.938;2023-04-03T03:43:59;1.90;99.90
12436;DHT22;6282;51.440;6.938;2023-04-03T03:46:26;2.00;99.90
12436;DHT22;6282;51.440;6.938;2023-04-03T03:48:53;2.00;99.90
12436;DHT22;6282;51.440;6.938;2023-04-03T03:51:20;2.20;99.90
12436;DHT22;6282;51.440;6.938;2023-04-03T03:53:48;2.30;99.90
12436;DHT22;6282;51.440;6.938;2023-04-03T03:56:15;2.30;99.90
12436;DHT22;6282;51.440;6.938;2023-04-03T03:58:42;2.20;99.90
12436;DHT22;6282;51.440;6.938;2023-04-03T04:01:09;2.30;99.90
12436;DHT22;6282;51.440;6.938;2023-04-03T04:03:35;2.10;99.90
12436;DHT22;6282;51.440;6.938;2023-04-03T04:06:02;2.10;99.90
12436;DHT22;6282;51.440;6.938;2023-04-03T04:08:29;2.20;99.90
12436;DHT22;6282;51.440;6.938;2023-04-03T04:10:58;2.40;99.90
12436;DHT22;6282;51.440;6.938;2023-04-03T04:13:25;2.30;99.90
12436;DHT22;6282;51.440;6.938;2023-04-03T04:15:51;2.10;99.90
12436;DHT22;6282;51.440;6.938;2023-04-03T04:18:18;1.90;99.90
12436;DHT22;6282;51.440;6.938;2023-04-03T04:20:46;1.90;99.90
12436;DHT22;6282;51.440;6.938;2023-04-03T04:23:13;2.00;99.90
12436;DHT22;6282;51.440;6.938;2023-04-03T04:25:40;1.90;99.90
12436;DHT22;6282;51.440;6.938;2023-04-03T04:28:08;2.00;99.90
12436;DHT22;6282;51.440;6.938;2023-04-03T04:30:35;2.20;99.90
12436;DHT22;6282;51.440;6.938;2023-04-03T04:33:02;2.20;99.90
12436;DHT22;6282;51.440;6.938;2023-04-03T04:35:29;2.20;99.90
12436;DHT22;6282;51.440;6.938;2023-04-03T04:37:56;2.10;99.90
12436;DHT22;6282;51.440;6.938;2023-04-03T04:40:22;2.20;99.90
12436;DHT22;6282;51.440;6.938;2023-04-03T04:42:50;2.30;99.90
12436;DHT22;6282;51.440;6.938;2023-04-03T04:45:18;2.10;99.90
12436;DHT22;6282;51.440;6.938;2023-04-03T04:47:45;2.00;99.90
12436;DHT22;6282;51.440;6.938;2023-04-03T04:50:12;2.00;99.90
12436;DHT22;6282;51.440;6.938;2023-04-03T04:52:39;1.90;99.90
12436;DHT22;6282;51.440;6.938;2023-04-03T04:55:07;2.40;99.90
12436;DHT22;6282;51.440;6.938;2023-04-03T04:57:33;2.20;99.90
12436;DHT22;6282;51.440;6.938;2023-04-03T05:00:00;2.20;99.90
12436;DHT22;6282;51.440;6.938;2023-04-03T05:02:29;1.90;99.90
12436;DHT22;6282;51.440;6.938;2023-04-03T05:04:56;1.70;99.90
12436;DHT22;6282;51.440;6.938;2023-04-03T05:07:23;1.60;99.90
12436;DHT22;6282;51.440;6.938;2023-04-03T05:09:50;2.10;99.90
12436;DHT22;6282;51.440;6.938;2023-04-03T05:12:17;1.80;99.90
12436;DHT22;6282;51.440;6.938;2023-04-03T05:14:44;1.90;99.90
12436;DHT22;6282;51.440;6.938;2023-04-03T05:17:10;1.80;99.90
12436;DHT22;6282;51.440;6.938;2023-04-03T05:19:39;1.90;99.90
12436;DHT22;6282;51.440;6.938;2023-04-03T05:22:05;1.80;99.90
12436;DHT22;6282;51.440;6.938;2023-04-03T05:24:32;1.90;99.90
12436;DHT22;6282;51.440;6.938;2023-04-03T05:26:59;2.20;99.90
12436;DHT22;6282;51.440;6.938;2023-04-03T05:29:26;2.00;99.90
12436;DHT22;6282;51.440;6.938;2023-04-03T05:31:53;2.10;99.90
12436;DHT22;6282;51.440;6.938;2023-04-03T05:34:20;2.00;99.90
12436;DHT22;6282;51.440;6.938;2023-04-03T05:36:48;1.90;99.90
12436;DHT22;6282;51.440;6.938;2023-04-03T05:39:15;2.30;99.90
12436;DHT22;6282;51.440;6.938;2023-04-03T05:41:42;2.40;99.90
12436;DHT22;6282;51.440;6.938;2023-04-03T05:44:09;2.00;99.90
12436;DHT22;6282;51.440;6.938;2023-04-03T05:46:36;1.80;99.90
12436;DHT22;6282;51.440;6.938;2023-04-03T05:49:02;1.80;99.90
12436;DHT22;6282;51.440;6.938;2023-04-03T05:51:32;1.80;99.90
12436;DHT22;6282;51.440;6.938;2023-04-03T05:54:08;1.90;99.90
12436;DHT22;6282;51.440;6.938;2023-04-03T05:56:36;2.20;99.90
12436;DHT22;6282;51.440;6.938;2023-04-03T05:59:03;1.90;99.90
12436;DHT22;6282;51.440;6.938;2023-04-03T06:01:29;2.10;99.90
12436;DHT22;6282;51.440;6.938;2023-04-03T06:03:56;2.10;99.90
12436;DHT22;6282;51.440;6.938;2023-04-03T06:06:24;1.90;99.90
12436;DHT22;6282;51.440;6.938;2023-04-03T06:08:51;2.00;99.90
12436;DHT22;6282;51.440;6.938;2023-04-03T06:11:19;2.10;99.90
12436;DHT22;6282;51.440;6.938;2023-04-03T06:13:47;1.90;99.90
12436;DHT22;6282;51.440;6.938;2023-04-03T06:16:15;2.10;99.90
12436;DHT22;6282;51.440;6.938;2023-04-03T06:18:43;2.20;99.90
12436;DHT22;6282;51.440;6.938;2023-04-03T06:21:10;2.10;99.90
12436;DHT22;6282;51.440;6.938;2023-04-03T06:23:37;2.00;99.90
12436;DHT22;6282;51.440;6.938;2023-04-03T06:26:04;2.20;99.90
12436;DHT22;6282;51.440;6.938;2023-04-03T06:28:32;2.20;99.90
12436;DHT22;6282;51.440;6.938;2023-04-03T06:30:59;2.30;99.90
12436;DHT22;6282;51.440;6.938;2023-04-03T06:33:26;2.30;99.90
12436;DHT22;6282;51.440;6.938;2023-04-03T06:35:57;2.40;99.90
12436;DHT22;6282;51.440;6.938;2023-04-03T06:38:23;3.00;99.90
12436;DHT22;6282;51.440;6.938;2023-04-03T06:40:51;3.40;99.90
12436;DHT22;6282;51.440;6.938;2023-04-03T06:43:18;4.30;99.90
12436;DHT22;6282;51.440;6.938;2023-04-03T06:45:47;6.30;99.90
12436;DHT22;6282;51.440;6.938;2023-04-03T06:48:14;8.10;99.90
12436;DHT22;6282;51.440;6.938;2023-04-03T06:50:41;8.10;99.90
12436;DHT22;6282;51.440;6.938;2023-04-03T06:53:08;8.50;99.90
12436;DHT22;6282;51.440;6.938;2023-04-03T06:55:36;8.60;99.90
12436;DHT22;6282;51.440;6.938;2023-04-03T06:58:03;8.80;99.90
12436;DHT22;6282;51.440;6.938;2023-04-03T07:00:30;7.50;99.90
12436;DHT22;6282;51.440;6.938;2023-04-03T07:02:58;7.20;99.90
12436;DHT22;6282;51.440;6.938;2023-04-03T07:05:25;8.10;99.90
12436;DHT22;6282;51.440;6.938;2023-04-03T07:07:53;9.90;99.90
12436;DHT22;6282;51.440;6.938;2023-04-03T07:10:20;10.10;99.90
12436;DHT22;6282;51.440;6.938;2023-04-03T07:12:46;9.90;99.90
12436;DHT22;6282;51.440;6.938;2023-04-03T07:15:13;9.50;99.90
12436;DHT22;6282;51.440;6.938;2023-04-03T07:17:40;11.20;99.90
12436;DHT22;6282;51.440;6.938;2023-04-03T07:20:09;9.80;99.90
12436;DHT22;6282;51.440;6.938;2023-04-03T07:22:37;9.60;99.90
12436;DHT22;6282;51.440;6.938;2023-04-03T07:25:04;10.60;99.90
12436;DHT22;6282;51.440;6.938;2023-04-03T07:27:33;10.40;99.90
12436;DHT22;6282;51.440;6.938;2023-04-03T07:29:59;10.90;99.90
12436;DHT22;6282;51.440;6.938;2023-04-03T07:32:26;10.20;99.90
12436;DHT22;6282;51.440;6.938;2023-04-03T07:34:53;11.00;99.90
12436;DHT22;6282;51.440;6.938;2023-04-03T07:37:21;10.00;99.90
12436;DHT22;6282;51.440;6.938;2023-04-03T07:39:48;9.90;99.90
12436;DHT22;6282;51.440;6.938;2023-04-03T07:42:16;9.90;99.90
12436;DHT22;6282;51.440;6.938;2023-04-03T07:44:43;10.40;99.90
12436;DHT22;6282;51.440;6.938;2023-04-03T07:47:10;10.10;99.90
12436;DHT22;6282;51.440;6.938;2023-04-03T07:49:37;10.20;99.90
12436;DHT22;6282;51.440;6.938;2023-04-03T07:52:06;10.40;99.90
12436;DHT22;6282;51.440;6.938;2023-04-03T07:54:35;9.10;99.90
12436;DHT22;6282;51.440;6.938;2023-04-03T07:57:02;9.00;99.90
12436;DHT22;6282;51.440;6.938;2023-04-03T07:59:30;9.20;99.90
12436;DHT22;6282;51.440;6.938;2023-04-03T08:01:57;9.90;99.90
12436;DHT22;6282;51.440;6.938;2023-04-03T08:04:24;10.60;99.90
12436;DHT22;6282;51.440;6.938;2023-04-03T08:06:51;10.20;99.90
12436;DHT22;6282;51.440;6.938;2023-04-03T08:09:18;9.20;99.90
12436;DHT22;6282;51.440;6.938;2023-04-03T08:11:47;8.70;99.90
12436;DHT22;6282;51.440;6.938;2023-04-03T08:14:16;9.50;99.90
12436;DHT22;6282;51.440;6.938;2023-04-03T08:16:44;8.90;99.90
12436;DHT22;6282;51.440;6.938;2023-04-03T08:19:11;8.50;99.90
12436;DHT22;6282;51.440;6.938;2023-04-03T08:21:40;8.50;99.90
12436;DHT22;6282;51.440;6.938;2023-04-03T08:24:08;9.30;99.90
12436;DHT22;6282;51.440;6.938;2023-04-03T08:26:35;8.50;99.90
12436;DHT22;6282;51.440;6.938;2023-04-03T08:29:04;9.00;99.90
12436;DHT22;6282;51.440;6.938;2023-04-03T08:31:30;9.00;99.90
12436;DHT22;6282;51.440;6.938;2023-04-03T08:33:57;8.80;99.90
12436;DHT22;6282;51.440;6.938;2023-04-03T08:36:25;9.10;99.90
12436;DHT22;6282;51.440;6.938;2023-04-03T08:38:54;8.00;99.90
12436;DHT22;6282;51.440;6.938;2023-04-03T08:41:30;9.40;99.90
12436;DHT22;6282;51.440;6.938;2023-04-03T08:44:07;9.10;99.90
12436;DHT22;6282;51.440;6.938;2023-04-03T08:46:51;9.50;99.90
12436;DHT22;6282;51.440;6.938;2023-04-03T08:49:24;9.70;99.90
12436;DHT22;6282;51.440;6.938;2023-04-03T08:51:53;10.30;99.90
12436;DHT22;6282;51.440;6.938;2023-04-03T08:54:26;9.00;99.90
12436;DHT22;6282;51.440;6.938;2023-04-03T08:56:55;8.40;99.90
12436;DHT22;6282;51.440;6.938;2023-04-03T08:59:28;9.70;99.90
12436;DHT22;6282;51.440;6.938;2023-04-03T09:01:58;8.90;99.90
12436;DHT22;6282;51.440;6.938;2023-04-03T09:04:28;10.60;99.90
12436;DHT22;6282;51.440;6.938;2023-04-03T09:07:03;9.00;99.90
12436;DHT22;6282;51.440;6.938;2023-04-03T09:09:36;9.50;99.90
12436;DHT22;6282;51.440;6.938;2023-04-03T09:12:15;9.10;99.90
12436;DHT22;6282;51.440;6.938;2023-04-03T09:14:49;8.40;99.90
12436;DHT22;6282;51.440;6.938;2023-04-03T09:17:27;8.00;99.90
12436;DHT22;6282;51.440;6.938;2023-04-03T09:20:03;9.30;99.90
12436;DHT22;6282;51.440;6.938;2023-04-03T09:22:35;9.40;99.90
12436;DHT22;6282;51.440;6.938;2023-04-03T09:25:10;10.20;99.90
12436;DHT22;6282;51.440;6.938;2023-04-03T09:27:39;10.20;99.90
12436;DHT22;6282;51.440;6.938;2023-04-03T09:30:13;10.60;99.90
12436;DHT22;6282;51.440;6.938;2023-04-03T09:32:41;10.30;99.90
12436;DHT22;6282;51.440;6.938;2023-04-03T09:35:16;9.30;99.90
12436;DHT22;6282;51.440;6.938;2023-04-03T09:37:46;9.00;99.90
12436;DHT22;6282;51.440;6.938;2023-04-03T09:40:35;9.60;99.90
12436;DHT22;6282;51.440;6.938;2023-04-03T09:43:20;9.20;99.90
12436;DHT22;6282;51.440;6.938;2023-04-03T09:45:50;9.20;99.90
12436;DHT22;6282;51.440;6.938;2023-04-03T09:48:18;8.70;99.90
12436;DHT22;6282;51.440;6.938;2023-04-03T09:50:55;8.60;99.90
12436;DHT22;6282;51.440;6.938;2023-04-03T09:53:33;8.60;99.90
12436;DHT22;6282;51.440;6.938;2023-04-03T09:56:03;8.00;99.90
12436;DHT22;6282;51.440;6.938;2023-04-03T09:58:31;7.90;99.90
12436;DHT22;6282;51.440;6.938;2023-04-03T10:01:02;8.10;99.90
12436;DHT22;6282;51.440;6.938;2023-04-03T10:03:31;8.40;99.90
12436;DHT22;6282;51.440;6.938;2023-04-03T10:06:00;7.70;99.90
12436;DHT22;6282;51.440;6.938;2023-04-03T10:08:29;7.50;99.90
12436;DHT22;6282;51.440;6.938;2023-04-03T10:11:09;7.30;99.90
12436;DHT22;6282;51.440;6.938;2023-04-03T10:13:49;7.40;99.90
12436;DHT22;6282;51.440;6.938;2023-04-03T10:16:19;7.40;99.90
12436;DHT22;6282;51.440;6.938;2023-04-03T10:18:54;7.30;99.90
12436;DHT22;6282;51.440;6.938;2023-04-03T10:21:32;7.70;99.90
12436;DHT22;6282;51.440;6.938;2023-04-03T10:24:08;7.70;99.90
12436;DHT22;6282;51.440;6.938;2023-04-03T10:26:41;7.70;99.90
12436;DHT22;6282;51.440;6.938;2023-04-03T10:29:20;7.30;99.90
12436;DHT22;6282;51.440;6.938;2023-04-03T10:31:59;7.10;99.90
12436;DHT22;6282;51.440;6.938;2023-04-03T10:34:31;7.60;99.90
12436;DHT22;6282;51.440;6.938;2023-04-03T10:37:06;7.80;99.90
12436;DHT22;6282;51.440;6.938;2023-04-03T10:39:44;7.60;99.90
12436;DHT22;6282;51.440;6.938;2023-04-03T10:42:20;7.60;99.90
12436;DHT22;6282;51.440;6.938;2023-04-03T10:45:01;7.60;99.90
12436;DHT22;6282;51.440;6.938;2023-04-03T10:47:39;8.00;99.90
12436;DHT22;6282;51.440;6.938;2023-04-03T10:50:22;7.60;99.90
12436;DHT22;6282;51.440;6.938;2023-04-03T10:52:57;7.80;99.90
12436;DHT22;6282;51.440;6.938;2023-04-03T10:55:34;7.80;99.90
12436;DHT22;6282;51.440;6.938;2023-04-03T10:58:03;7.60;99.90
12436;DHT22;6282;51.440;6.938;2023-04-03T11:00:36;7.70;99.90
12436;DHT22;6282;51.440;6.938;2023-04-03T11:03:08;7.70;99.90
12436;DHT22;6282;51.440;6.938;2023-04-03T11:05:41;8.00;99.90
12436;DHT22;6282;51.440;6.938;2023-04-03T11:08:24;7.60;99.90
12436;DHT22;6282;51.440;6.938;2023-04-03T11:10:56;7.70;99.90
12436;DHT22;6282;51.440;6.938;2023-04-03T11:13:28;7.90;99.90
12436;DHT22;6282;51.440;6.938;2023-04-03T11:15:58;8.20;99.90
12436;DHT22;6282;51.440;6.938;2023-04-03T11:18:31;8.30;99.90
12436;DHT22;6282;51.440;6.938;2023-04-03T11:21:02;8.00;99.90
12436;DHT22;6282;51.440;6.938;2023-04-03T11:23:33;8.00;99.90
12436;DHT22;6282;51.440;6.938;2023-04-03T11:26:10;8.10;99.90
12436;DHT22;6282;51.440;6.938;2023-04-03T11:28:37;8.20;99.90
12436;DHT22;6282;51.440;6.938;2023-04-03T11:31:13;8.30;99.90
12436;DHT22;6282;51.440;6.938;2023-04-03T11:33:51;8.60;99.90
12436;DHT22;6282;51.440;6.938;2023-04-03T11:36:23;8.40;99.90
12436;DHT22;6282;51.440;6.938;2023-04-03T11:38:53;8.40;99.90
12436;DHT22;6282;51.440;6.938;2023-04-03T11:41:26;8.10;99.90
12436;DHT22;6282;51.440;6.938;2023-04-03T11:43:58;7.80;99.90
12436;DHT22;6282;51.440;6.938;2023-04-03T11:46:49;7.90;99.90
12436;DHT22;6282;51.440;6.938;2023-04-03T11:49:53;7.90;99.90
12436;DHT22;6282;51.440;6.938;2023-04-03T11:53:01;8.10;99.90
12436;DHT22;6282;51.440;6.938;2023-04-03T11:55:55;8.40;99.90
12436;DHT22;6282;51.440;6.938;2023-04-03T11:58:23;8.00;99.90
12436;DHT22;6282;51.440;6.938;2023-04-03T12:12:59;8.10;99.90
12436;DHT22;6282;51.440;6.938;2023-04-03T12:15:51;8.30;99.90
12436;DHT22;6282;51.440;6.938;2023-04-03T12:18:41;8.20;99.90
12436;DHT22;6282;51.440;6.938;2023-04-03T12:21:08;8.20;99.90
12436;DHT22;6282;51.440;6.938;2023-04-03T12:23:37;8.30;99.90
12436;DHT22;6282;51.440;6.938;2023-04-03T12:26:24;8.80;99.90
12436;DHT22;6282;51.440;6.938;2023-04-03T12:28:53;8.50;99.90
12436;DHT22;6282;51.440;6.938;2023-04-03T12:31:24;8.60;99.90
12436;DHT22;6282;51.440;6.938;2023-04-03T12:36:52;8.60;99.90
12436;DHT22;6282;51.440;6.938;2023-04-03T12:39:40;8.80;99.90
12436;DHT22;6282;51.440;6.938;2023-04-03T12:42:21;8.90;99.90
12436;DHT22;6282;51.440;6.938;2023-04-03T12:45:00;8.90;99.90
12436;DHT22;6282;51.440;6.938;2023-04-03T12:47:31;8.70;99.90
12436;DHT22;6282;51.440;6.938;2023-04-03T12:50:02;9.00;99.90
12436;DHT22;6282;51.440;6.938;2023-04-03T12:52:37;9.20;99.90
12436;DHT22;6282;51.440;6.938;2023-04-03T12:55:13;9.00;99.90
12436;DHT22;6282;51.440;6.938;2023-04-03T12:57:40;8.90;99.90
12436;DHT22;6282;51.440;6.938;2023-04-03T13:00:31;9.00;99.90
12436;DHT22;6282;51.440;6.938;2023-04-03T13:02:59;8.60;99.90
12436;DHT22;6282;51.440;6.938;2023-04-03T13:05:26;9.10;99.90
12436;DHT22;6282;51.440;6.938;2023-04-03T13:07:58;8.80;99.90
12436;DHT22;6282;51.440;6.938;2023-04-03T13:10:27;8.50;99.90
12436;DHT22;6282;51.440;6.938;2023-04-03T13:12:56;8.60;99.90
12436;DHT22;6282;51.440;6.938;2023-04-03T13:15:29;9.00;99.90
12436;DHT22;6282;51.440;6.938;2023-04-03T13:17:56;8.70;99.90
12436;DHT22;6282;51.440;6.938;2023-04-03T13:20:25;8.50;99.90
12436;DHT22;6282;51.440;6.938;2023-04-03T13:22:57;8.90;99.90
12436;DHT22;6282;51.440;6.938;2023-04-03T13:25:26;9.10;99.90
12436;DHT22;6282;51.440;6.938;2023-04-03T13:27:54;8.80;99.90
12436;DHT22;6282;51.440;6.938;2023-04-03T13:30:27;8.60;99.90
12436;DHT22;6282;51.440;6.938;2023-04-03T13:32:56;9.00;99.90
12436;DHT22;6282;51.440;6.938;2023-04-03T13:35:33;8.80;99.90
12436;DHT22;6282;51.440;6.938;2023-04-03T13:38:05;8.60;99.90
12436;DHT22;6282;51.440;6.938;2023-04-03T13:40:32;8.60;99.90
12436;DHT22;6282;51.440;6.938;2023-04-03T13:43:06;8.80;99.90
12436;DHT22;6282;51.440;6.938;2023-04-03T13:45:54;8.60;99.90
12436;DHT22;6282;51.440;6.938;2023-04-03T13:48:22;8.70;99.90
12436;DHT22;6282;51.440;6.938;2023-04-03T13:50:52;8.30;99.90
12436;DHT22;6282;51.440;6.938;2023-04-03T13:53:20;8.60;99.90
12436;DHT22;6282;51.440;6.938;2023-04-03T13:55:57;8.70;99.90
12436;DHT22;6282;51.440;6.938;2023-04-03T13:58:26;9.20;99.90
12436;DHT22;6282;51.440;6.938;2023-04-03T14:00:58;9.00;99.90
12436;DHT22;6282;51.440;6.938;2023-04-03T14:03:29;8.80;99.90
12436;DHT22;6282;51.440;6.938;2023-04-03T14:05:56;8.60;99.90
12436;DHT22;6282;51.440;6.938;2023-04-03T14:08:23;9.10;99.90
12436;DHT22;6282;51.440;6.938;2023-04-03T14:10:50;9.10;99.90
12436;DHT22;6282;51.440;6.938;2023-04-03T14:13:19;8.80;99.90
12436;DHT22;6282;51.440;6.938;2023-04-03T14:15:47;9.10;99.90
12436;DHT22;6282;51.440;6.938;2023-04-03T14:18:17;9.20;99.90
12436;DHT22;6282;51.440;6.938;2023-04-03T14:20:46;8.90;99.90
12436;DHT22;6282;51.440;6.938;2023-04-03T14:23:13;8.90;99.90
12436;DHT22;6282;51.440;6.938;2023-04-03T14:25:41;8.50;99.90
12436;DHT22;6282;51.440;6.938;2023-04-03T14:28:15;8.50;99.90
12436;DHT22;6282;51.440;6.938;2023-04-03T14:30:42;9.00;99.90
12436;DHT22;6282;51.440;6.938;2023-04-03T14:33:15;8.90;99.90
12436;DHT22;6282;51.440;6.938;2023-04-03T14:35:44;8.50;99.90
12436;DHT22;6282;51.440;6.938;2023-04-03T14:38:23;8.70;99.90
12436;DHT22;6282;51.440;6.938;2023-04-03T14:40:51;8.90;99.90
12436;DHT22;6282;51.440;6.938;2023-04-03T14:43:18;8.50;99.90
12436;DHT22;6282;51.440;6.938;2023-04-03T14:45:45;8.50;99.90
12436;DHT22;6282;51.440;6.938;2023-04-03T14:48:19;8.70;99.90
12436;DHT22;6282;51.440;6.938;2023-04-03T14:50:46;8.60;99.90
12436;DHT22;6282;51.440;6.938;2023-04-03T14:53:14;8.40;99.90
12436;DHT22;6282;51.440;6.938;2023-04-03T14:55:43;8.40;99.90
12436;DHT22;6282;51.440;6.938;2023-04-03T14:58:13;8.60;99.90
12436;DHT22;6282;51.440;6.938;2023-04-03T15:00:41;8.70;99.90
12436;DHT22;6282;51.440;6.938;2023-04-03T15:03:13;8.90;99.90
12436;DHT22;6282;51.440;6.938;2023-04-03T15:05:43;8.90;99.90
12436;DHT22;6282;51.440;6.938;2023-04-03T15:08:18;9.00;99.90
12436;DHT22;6282;51.440;6.938;2023-04-03T15:10:45;8.90;99.90
12436;DHT22;6282;51.440;6.938;2023-04-03T15:13:13;8.90;99.90
12436;DHT22;6282;51.440;6.938;2023-04-03T15:15:40;8.60;99.90
12436;DHT22;6282;51.440;6.938;2023-04-03T15:18:11;8.40;99.90
12436;DHT22;6282;51.440;6.938;2023-04-03T15:20:41;8.30;99.90
12436;DHT22;6282;51.440;6.938;2023-04-03T15:23:10;8.50;99.90
12436;DHT22;6282;51.440;6.938;2023-04-03T15:25:38;8.60;99.90
12436;DHT22;6282;51.440;6.938;2023-04-03T15:28:05;8.40;99.90
12436;DHT22;6282;51.440;6.938;2023-04-03T15:30:33;8.60;99.90
12436;DHT22;6282;51.440;6.938;2023-04-03T15:33:03;8.80;99.90
12436;DHT22;6282;51.440;6.938;2023-04-03T15:35:30;8.50;99.90
12436;DHT22;6282;51.440;6.938;2023-04-03T15:37:58;8.60;99.90
12436;DHT22;6282;51.440;6.938;2023-04-03T15:40:25;8.50;99.90
12436;DHT22;6282;51.440;6.938;2023-04-03T15:42:52;8.60;99.90
12436;DHT22;6282;51.440;6.938;2023-04-03T15:45:19;8.50;99.90
12436;DHT22;6282;51.440;6.938;2023-04-03T15:47:46;8.40;99.90
12436;DHT22;6282;51.440;6.938;2023-04-03T15:50:13;8.50;99.90
12436;DHT22;6282;51.440;6.938;2023-04-03T15:52:40;8.50;99.90
12436;DHT22;6282;51.440;6.938;2023-04-03T15:55:09;8.50;99.90
12436;DHT22;6282;51.440;6.938;2023-04-03T15:57:35;8.40;99.90
12436;DHT22;6282;51.440;6.938;2023-04-03T16:00:03;8.40;99.90
12436;DHT22;6282;51.440;6.938;2023-04-03T16:02:31;8.30;99.90
12436;DHT22;6282;51.440;6.938;2023-04-03T16:04:59;8.20;99.90
12436;DHT22;6282;51.440;6.938;2023-04-03T16:07:26;8.30;99.90
12436;DHT22;6282;51.440;6.938;2023-04-03T16:09:53;8.30;99.90
12436;DHT22;6282;51.440;6.938;2023-04-03T16:12:21;8.40;99.90
12436;DHT22;6282;51.440;6.938;2023-04-03T16:14:48;8.20;99.90
12436;DHT22;6282;51.440;6.938;2023-04-03T16:17:15;8.20;99.90
12436;DHT22;6282;51.440;6.938;2023-04-03T16:19:42;8.10;99.90
12436;DHT22;6282;51.440;6.938;2023-04-03T16:22:09;8.00;99.90
12436;DHT22;6282;51.440;6.938;2023-04-03T16:24:36;8.30;99.90
12436;DHT22;6282;51.440;6.938;2023-04-03T16:27:03;8.10;99.90
12436;DHT22;6282;51.440;6.938;2023-04-03T16:29:31;8.00;99.90
12436;DHT22;6282;51.440;6.938;2023-04-03T16:31:58;8.10;99.90
12436;DHT22;6282;51.440;6.938;2023-04-03T16:34:26;7.80;99.90
12436;DHT22;6282;51.440;6.938;2023-04-03T16:37:09;8.10;99.90